KMGM

Montgomery Regional (Dannelly Field) Airport

Montgomery, Alabama, USA
METAR KMGM 151853Z 20005KT 2SM -RA BR BKN011 OVC017 17/16 A2989 RMK AO2 RAE1755B19E30B46 SLP119 P0000 T01720161
Observed Flight Rules
Feb-15 @ 18:53 UTC (13 minutes ago) Instrument Flight Rules
Wind Visibility Clouds Conditions
200° at 5 knots 2 miles
  • Broken at 1,100' AGL
  • Overcast at 1,700' AGL
  • Light Rain
  • Mist
Temperatures Readings Precipitation
Current 17°C / 63°F
Dewpoint 16°C / 61°F
Humidity 94%
Altimeter 29.89" Hg
Pressure 1011.9 hPa
Elevation 63
Current Rain 0.01
METAR KMGM 151853Z 20005KT 2SM -RA BR BKN011 OVC017 17/16 A2989 RMK AO2 RAE1755B19E30B46 SLP119 P0000 T01720161
Observed Flight Rules
Feb-15 @ 18:53 UTC
(13 minutes ago)
IFR
Wind Visibility
200° at 5 knots 2 miles
Clouds
  • Broken at 1,100' AGL
  • Overcast at 1,700' AGL
Conditions
  • Light Rain
  • Mist
Temperature Dewpoint
17°C / 63°F 16°C / 61°F
Humidity Altimeter Pressure
94% 29.89" Hg 1011.9 hPa
Current Rain
0.01